Barbados Meteorological Services
Auto gathered TAF list
Powered by Apparatus software
For Flight AA1089
Contact Number 1-(246)-535-0021/2/3/4/5/6
WEB: http://www.barbadosweather.org

**********************************************

2018/06/24 12:13
TAF TLPL 241100Z 2412/2512 09022KT 9999 SCT026
TEMPO 2412/2506 SHRA BKN018 SCT040


**********************************************
2018/06/24 15:54
TAF TJSJ 241439Z 2415/2512 10015KT P6SM SCT025
FM242200 09013KT P6SM FEW025 SCT070


**********************************************
2018/06/24 18:07
TAF TFFR 241700Z 2418/2518 08015KT 9999 SCT030 BKN050 PROB30
TEMPO 2418/2518 4000 SHRA BKN015TCU


**********************************************
2018/06/24 18:07
TAF TBPB 241700Z 2418/2518 08022KT 9999 SCT018
TEMPO 2418/2424 08020G30KT 5000 SHRA BKN014 SCT034


**********************************************
2018/06/24 18:06
TAF TAF TAPA 241700Z 2418/2518 09015KT 9999 SCT022


**********************************************
2018/06/24 18:15
TAF MYNN 241700Z 2418/2518 13010G20KT 5000 TSRA SCT015CB SCT040 BKN180
BECMG 2500/2502 13008KT 9999 VCTS SCT014CB BKN040
BECMG 2506/2508 12005KT 9999 SCT018 SCT045


**********************************************
2018/06/24 12:06
TAF MTPP 241100Z 2412/2512 11008KT 9000 SCT020
BECMG 2414/2417 09012KT
BECMG 2418/2422 27010KT FEW024CB SCT030 PROB40
TEMPO 2502/2506 4500 TSRA SCT022CB BKN030
BECMG 2508/2512 VRB02KT 9000 FEW020


**********************************************
2018/06/24 18:43
TAF MDSD 241600Z 2418/2518 05004KT 9999 FEW016CB SCT018 SCT070 PROB40
TEMPO 2418/2500 7000 -TSRA FEW016CB SCT016 BKN070


**********************************************
2018/06/24 12:24
TAF KSFB 241121Z 2412/2512 23003KT P6SM FEW150 FEW250
FM241400 32005KT P6SM SCT035
FM241800 09008KT P6SM VCTS SCT045CB SCT080
TEMPO 2420/2422 3SM TSRA BKN030CB
FM250000 12006KT P6SM SCT100 BKN250


**********************************************
2018/06/24 16:21
TAF KPHL 241601Z 2416/2518 25008G1
FM242100 25010G15KT P6SM BKN050
TEMPO 2422/2502 5SM -TSRA BKN035CB
FM250500 32006KT P6SM SCT200


**********************************************
2018/06/24 18:20
TAF KPBI 241720Z 2418/2518 09010KT P6SM VCTS SCT025CB BKN050
FM241900 11010KT P6SM VCSH FEW025 SCT070
FM250100 13006KT P6SM FEW025 SCT050
FM251400 13009KT P6SM VCSH FEW025 SCT050


**********************************************
2018/06/24 15:57
TAF
AMD KOPF 241454Z 2415/2512 14005KT 6SM -SHRA VCTS SCT025CB BKN050
FM241700 12010KT P6SM VCSH FEW025 SCT070
FM250100 13005KT P6SM FEW025 SCT050


**********************************************


**********************************************
2018/06/24 18:20
TAF KMIA 241720Z 2418/2524 12010KT P6SM VCSH FEW025 SCT070
FM250100 12005KT P6SM FEW025 SCT050
FM251400 13009KT P6SM VCSH FEW025 SCT050


**********************************************
2018/06/24 16:42
TAF
AMD KMCO 241541Z 2416/2518 35005KT P6SM SCT030
FM241800 09008KT P6SM VCTS SCT045CB SCT080
TEMPO 2420/2422 3SM TSRA BKN030CB
FM250000 12006KT P6SM SCT100 BKN250
FM251500 15005KT P6SM SCT035


**********************************************
2018/06/24 17:43
TAF
AMD KJFK 241633Z 2417/2518 21006KT P6SM SCT015 SCT025 SCT200
TEMPO 2417/2419 BKN025
FM241900 19010KT P6SM SCT040 SCT200
FM242200 22010KT P6SM VCTS BKN040CB
FM250200 27008KT P6SM VCSH SCT040 BKN250
FM250600 31007KT P6SM FEW030 BKN250
FM250900 33010KT P6SM FEW030 BKN250
FM251400 32014G22KT P6SM SCT050 SCT250


**********************************************
2018/06/24 15:06
TAF
AMD KJAX 241504Z 2415/2512 28007KT P6SM SCT030 SCT250
FM242000 12009KT P6SM SCT040


**********************************************
2018/06/24 18:20
TAF KFLL 241720Z 2418/2524 12011KT P6SM VCSH FEW025 SCT070
FM250100 13006KT P6SM FEW025 SCT050
FM251400 13009KT P6SM VCSH FEW025 SCT050


**********************************************
2018/06/24 17:36
TAF
AMD KEWR 241633Z 2417/2518 21009KT P6SM SCT025 SCT250
TEMPO 2417/2418 BKN035
FM241800 23010G18KT P6SM BKN040
FM242200 24010G18KT P6SM VCTS BKN040CB
TEMPO 2422/2424 29025G40KT 2SM TSRA BKN030CB
FM250100 28007KT P6SM VCSH SCT040 BKN250
FM250500 29009KT P6SM FEW030 BKN250
FM250800 35013KT P6SM FEW030 BKN250
FM251400 34013G21KT P6SM SCT030 SCT250


**********************************************
2018/06/24 16:57
TAF
AMD KCLT 241554Z 2416/2518 24009KT P6SM FEW030
FM242000 26009KT P6SM VCSH SCT070
TEMPO 2420/2423 VRB15G25KT 4SM TSRA BKN050CB
FM250000 24006KT P6SM FEW060 SCT250
FM250500 33003KT P6SM SCT250
FM251600 02004KT P6SM SCT060


**********************************************
2018/06/24 16:58
TAF
AMD KATL 241557Z 2416/2518 28012KT P6SM SCT040
FM250000 28005KT P6SM SCT250
FM251600 30006KT P6SM SCT040


**********************************************